sensor_id;sensor_type;location;lat;lon;timestamp;temperature;humidity
70107;DHT22;57473;37.508;15.080;2023-06-24T00:01:05;27.10;54.90
70107;DHT22;57473;37.508;15.080;2023-06-24T00:03:33;27.10;54.90
70107;DHT22;57473;37.508;15.080;2023-06-24T00:06:04;27.10;55.10
70107;DHT22;57473;37.508;15.080;2023-06-24T00:08:32;27.00;55.60
70107;DHT22;57473;37.508;15.080;2023-06-24T00:11:03;27.00;56.10
70107;DHT22;57473;37.508;15.080;2023-06-24T00:13:31;26.90;56.40
70107;DHT22;57473;37.508;15.080;2023-06-24T00:15:58;26.90;56.60
70107;DHT22;57473;37.508;15.080;2023-06-24T00:18:25;26.90;56.70
70107;DHT22;57473;37.508;15.080;2023-06-24T00:20:56;26.80;57.00
70107;DHT22;57473;37.508;15.080;2023-06-24T00:23:23;26.80;57.00
70107;DHT22;57473;37.508;15.080;2023-06-24T00:25:54;26.80;57.00
70107;DHT22;57473;37.508;15.080;2023-06-24T00:28:22;26.70;57.10
70107;DHT22;57473;37.508;15.080;2023-06-24T00:30:50;26.70;57.40
70107;DHT22;57473;37.508;15.080;2023-06-24T00:33:18;26.60;57.60
70107;DHT22;57473;37.508;15.080;2023-06-24T00:35:46;26.60;57.70
70107;DHT22;57473;37.508;15.080;2023-06-24T00:38:14;26.60;57.90
70107;DHT22;57473;37.508;15.080;2023-06-24T00:40:42;26.60;58.00
70107;DHT22;57473;37.508;15.080;2023-06-24T00:43:09;26.50;58.30
70107;DHT22;57473;37.508;15.080;2023-06-24T00:45:37;26.50;58.50
70107;DHT22;57473;37.508;15.080;2023-06-24T00:48:05;26.50;58.90
70107;DHT22;57473;37.508;15.080;2023-06-24T00:50:33;26.40;59.20
70107;DHT22;57473;37.508;15.080;2023-06-24T00:53:02;26.40;59.40
70107;DHT22;57473;37.508;15.080;2023-06-24T00:55:29;26.40;59.40
70107;DHT22;57473;37.508;15.080;2023-06-24T00:57:56;26.30;59.70
70107;DHT22;57473;37.508;15.080;2023-06-24T01:00:26;26.30;59.90
70107;DHT22;57473;37.508;15.080;2023-06-24T01:02:54;26.30;60.20
70107;DHT22;57473;37.508;15.080;2023-06-24T01:05:22;26.30;60.30
70107;DHT22;57473;37.508;15.080;2023-06-24T01:07:57;26.30;60.30
70107;DHT22;57473;37.508;15.080;2023-06-24T01:10:24;26.20;60.50
70107;DHT22;57473;37.508;15.080;2023-06-24T01:12:53;26.20;60.70
70107;DHT22;57473;37.508;15.080;2023-06-24T01:15:21;26.20;60.60
70107;DHT22;57473;37.508;15.080;2023-06-24T01:20:26;26.10;60.80
70107;DHT22;57473;37.508;15.080;2023-06-24T01:37:37;26.10;60.80
70107;DHT22;57473;37.508;15.080;2023-06-24T01:42:45;26.10;60.40
70107;DHT22;57473;37.508;15.080;2023-06-24T01:45:16;26.10;60.20
70107;DHT22;57473;37.508;15.080;2023-06-24T01:47:47;26.10;60.00
70107;DHT22;57473;37.508;15.080;2023-06-24T01:50:19;26.10;60.00
70107;DHT22;57473;37.508;15.080;2023-06-24T01:52:47;26.00;60.10
70107;DHT22;57473;37.508;15.080;2023-06-24T01:55:18;26.00;60.40
70107;DHT22;57473;37.508;15.080;2023-06-24T01:57:50;25.90;60.80
70107;DHT22;57473;37.508;15.080;2023-06-24T02:00:18;25.90;61.00
70107;DHT22;57473;37.508;15.080;2023-06-24T02:02:50;25.90;61.00
70107;DHT22;57473;37.508;15.080;2023-06-24T02:05:18;25.80;60.30
70107;DHT22;57473;37.508;15.080;2023-06-24T02:07:47;25.90;60.40
70107;DHT22;57473;37.508;15.080;2023-06-24T02:10:16;25.90;60.60
70107;DHT22;57473;37.508;15.080;2023-06-24T02:12:46;25.90;60.70
70107;DHT22;57473;37.508;15.080;2023-06-24T02:15:15;25.90;60.50
70107;DHT22;57473;37.508;15.080;2023-06-24T02:17:44;25.90;60.70
70107;DHT22;57473;37.508;15.080;2023-06-24T02:20:14;25.80;60.60
70107;DHT22;57473;37.508;15.080;2023-06-24T02:22:44;25.80;60.80
70107;DHT22;57473;37.508;15.080;2023-06-24T02:25:12;25.80;60.80
70107;DHT22;57473;37.508;15.080;2023-06-24T02:27:40;25.70;61.00
70107;DHT22;57473;37.508;15.080;2023-06-24T02:30:09;25.70;61.10
70107;DHT22;57473;37.508;15.080;2023-06-24T02:32:36;25.70;61.60
70107;DHT22;57473;37.508;15.080;2023-06-24T02:35:06;25.70;61.70
70107;DHT22;57473;37.508;15.080;2023-06-24T02:37:34;25.60;61.70
70107;DHT22;57473;37.508;15.080;2023-06-24T02:40:02;25.60;62.00
70107;DHT22;57473;37.508;15.080;2023-06-24T02:42:31;25.60;62.00
70107;DHT22;57473;37.508;15.080;2023-06-24T02:44:59;25.60;61.60
70107;DHT22;57473;37.508;15.080;2023-06-24T02:47:27;25.60;61.70
70107;DHT22;57473;37.508;15.080;2023-06-24T02:49:56;25.60;61.40
70107;DHT22;57473;37.508;15.080;2023-06-24T02:52:25;25.60;61.70
70107;DHT22;57473;37.508;15.080;2023-06-24T02:54:57;25.60;61.60
70107;DHT22;57473;37.508;15.080;2023-06-24T02:57:49;25.60;61.90
70107;DHT22;57473;37.508;15.080;2023-06-24T03:00:40;25.50;62.60
70107;DHT22;57473;37.508;15.080;2023-06-24T03:03:08;25.50;64.60
70107;DHT22;57473;37.508;15.080;2023-06-24T03:05:46;25.50;64.50
70107;DHT22;57473;37.508;15.080;2023-06-24T03:08:16;25.50;63.60
70107;DHT22;57473;37.508;15.080;2023-06-24T03:10:46;25.50;63.60
70107;DHT22;57473;37.508;15.080;2023-06-24T03:13:18;25.40;63.90
70107;DHT22;57473;37.508;15.080;2023-06-24T03:15:52;25.40;64.30
70107;DHT22;57473;37.508;15.080;2023-06-24T03:18:20;25.40;64.30
70107;DHT22;57473;37.508;15.080;2023-06-24T03:20:49;25.30;64.60
70107;DHT22;57473;37.508;15.080;2023-06-24T03:23:19;25.30;64.10
70107;DHT22;57473;37.508;15.080;2023-06-24T03:25:47;25.30;64.30
70107;DHT22;57473;37.508;15.080;2023-06-24T03:28:15;25.30;64.50
70107;DHT22;57473;37.508;15.080;2023-06-24T03:30:48;25.30;64.80
70107;DHT22;57473;37.508;15.080;2023-06-24T03:33:19;25.30;65.10
70107;DHT22;57473;37.508;15.080;2023-06-24T03:35:46;25.30;65.40
70107;DHT22;57473;37.508;15.080;2023-06-24T03:38:18;25.30;65.90
70107;DHT22;57473;37.508;15.080;2023-06-24T03:40:47;25.30;66.20
70107;DHT22;57473;37.508;15.080;2023-06-24T03:43:14;25.20;66.40
70107;DHT22;57473;37.508;15.080;2023-06-24T03:45:41;25.20;66.50
70107;DHT22;57473;37.508;15.080;2023-06-24T03:48:09;25.20;66.30
70107;DHT22;57473;37.508;15.080;2023-06-24T03:50:38;25.30;66.70
70107;DHT22;57473;37.508;15.080;2023-06-24T03:53:06;25.30;66.70
70107;DHT22;57473;37.508;15.080;2023-06-24T03:55:34;25.20;66.70
70107;DHT22;57473;37.508;15.080;2023-06-24T03:58:04;25.20;66.70
70107;DHT22;57473;37.508;15.080;2023-06-24T04:00:32;25.20;66.90
70107;DHT22;57473;37.508;15.080;2023-06-24T04:02:59;25.20;67.10
70107;DHT22;57473;37.508;15.080;2023-06-24T04:05:31;25.20;67.10
70107;DHT22;57473;37.508;15.080;2023-06-24T04:07:58;25.20;67.90
70107;DHT22;57473;37.508;15.080;2023-06-24T04:10:26;25.20;69.60
70107;DHT22;57473;37.508;15.080;2023-06-24T04:12:53;25.20;70.90
70107;DHT22;57473;37.508;15.080;2023-06-24T04:15:21;25.20;73.10
70107;DHT22;57473;37.508;15.080;2023-06-24T04:17:48;25.20;75.00
70107;DHT22;57473;37.508;15.080;2023-06-24T04:20:16;25.20;76.90
70107;DHT22;57473;37.508;15.080;2023-06-24T04:22:44;25.20;78.10
70107;DHT22;57473;37.508;15.080;2023-06-24T04:25:11;25.20;79.90
70107;DHT22;57473;37.508;15.080;2023-06-24T04:27:39;25.20;81.70
70107;DHT22;57473;37.508;15.080;2023-06-24T04:30:08;25.10;83.00
70107;DHT22;57473;37.508;15.080;2023-06-24T04:32:35;25.10;83.50
70107;DHT22;57473;37.508;15.080;2023-06-24T04:35:03;25.10;83.90
70107;DHT22;57473;37.508;15.080;2023-06-24T04:37:36;25.10;84.00
70107;DHT22;57473;37.508;15.080;2023-06-24T04:40:04;25.10;82.00
70107;DHT22;57473;37.508;15.080;2023-06-24T04:42:31;25.10;78.70
70107;DHT22;57473;37.508;15.080;2023-06-24T04:44:58;25.20;78.20
70107;DHT22;57473;37.508;15.080;2023-06-24T04:47:26;25.30;77.90
70107;DHT22;57473;37.508;15.080;2023-06-24T04:49:53;25.40;75.50
70107;DHT22;57473;37.508;15.080;2023-06-24T04:52:22;25.50;73.40
70107;DHT22;57473;37.508;15.080;2023-06-24T04:54:50;25.60;72.00
70107;DHT22;57473;37.508;15.080;2023-06-24T04:57:30;25.80;69.20
70107;DHT22;57473;37.508;15.080;2023-06-24T04:59:58;26.00;67.40
70107;DHT22;57473;37.508;15.080;2023-06-24T05:02:26;26.10;67.10
70107;DHT22;57473;37.508;15.080;2023-06-24T05:04:53;26.20;65.40
70107;DHT22;57473;37.508;15.080;2023-06-24T05:07:21;26.20;65.40
70107;DHT22;57473;37.508;15.080;2023-06-24T05:09:49;26.20;64.80
70107;DHT22;57473;37.508;15.080;2023-06-24T05:12:16;26.20;65.40
70107;DHT22;57473;37.508;15.080;2023-06-24T05:14:44;26.40;64.50
70107;DHT22;57473;37.508;15.080;2023-06-24T05:17:11;26.60;63.90
70107;DHT22;57473;37.508;15.080;2023-06-24T05:19:39;26.70;62.90
70107;DHT22;57473;37.508;15.080;2023-06-24T05:22:06;26.70;63.10
70107;DHT22;57473;37.508;15.080;2023-06-24T05:24:34;26.70;62.50
70107;DHT22;57473;37.508;15.080;2023-06-24T05:27:06;26.70;62.60
70107;DHT22;57473;37.508;15.080;2023-06-24T05:29:34;26.60;63.50
70107;DHT22;57473;37.508;15.080;2023-06-24T05:32:01;26.60;63.90
70107;DHT22;57473;37.508;15.080;2023-06-24T05:34:31;26.70;63.40
70107;DHT22;57473;37.508;15.080;2023-06-24T05:36:58;26.80;63.90
70107;DHT22;57473;37.508;15.080;2023-06-24T05:39:25;26.90;64.10
70107;DHT22;57473;37.508;15.080;2023-06-24T05:41:53;26.90;64.60
70107;DHT22;57473;37.508;15.080;2023-06-24T05:44:20;27.00;64.60
70107;DHT22;57473;37.508;15.080;2023-06-24T05:46:47;27.00;64.40
70107;DHT22;57473;37.508;15.080;2023-06-24T05:49:15;27.00;64.60
70107;DHT22;57473;37.508;15.080;2023-06-24T05:51:42;27.10;64.70
70107;DHT22;57473;37.508;15.080;2023-06-24T05:54:09;27.10;65.30
70107;DHT22;57473;37.508;15.080;2023-06-24T05:56:37;27.10;65.50
70107;DHT22;57473;37.508;15.080;2023-06-24T05:59:06;27.20;65.20
70107;DHT22;57473;37.508;15.080;2023-06-24T06:01:33;27.30;65.10
70107;DHT22;57473;37.508;15.080;2023-06-24T06:04:01;27.20;64.60
70107;DHT22;57473;37.508;15.080;2023-06-24T06:06:28;27.10;64.70
70107;DHT22;57473;37.508;15.080;2023-06-24T06:08:56;27.10;63.90
70107;DHT22;57473;37.508;15.080;2023-06-24T06:11:24;27.10;63.80
70107;DHT22;57473;37.508;15.080;2023-06-24T06:13:52;27.20;64.20
70107;DHT22;57473;37.508;15.080;2023-06-24T06:16:19;27.30;62.10
70107;DHT22;57473;37.508;15.080;2023-06-24T06:18:47;27.50;61.10
70107;DHT22;57473;37.508;15.080;2023-06-24T06:21:14;27.60;61.00
70107;DHT22;57473;37.508;15.080;2023-06-24T06:23:42;27.70;62.00
70107;DHT22;57473;37.508;15.080;2023-06-24T06:26:09;27.70;63.50
70107;DHT22;57473;37.508;15.080;2023-06-24T06:28:37;27.70;64.20
70107;DHT22;57473;37.508;15.080;2023-06-24T06:31:05;27.80;64.50
70107;DHT22;57473;37.508;15.080;2023-06-24T06:33:32;27.90;64.10
70107;DHT22;57473;37.508;15.080;2023-06-24T06:35:59;28.00;64.20
70107;DHT22;57473;37.508;15.080;2023-06-24T06:38:27;28.20;64.10
70107;DHT22;57473;37.508;15.080;2023-06-24T06:40:55;28.40;63.80
70107;DHT22;57473;37.508;15.080;2023-06-24T06:43:22;28.60;62.70
70107;DHT22;57473;37.508;15.080;2023-06-24T06:45:49;28.60;63.40
70107;DHT22;57473;37.508;15.080;2023-06-24T06:48:17;28.60;62.90
70107;DHT22;57473;37.508;15.080;2023-06-24T06:50:45;28.60;63.20
70107;DHT22;57473;37.508;15.080;2023-06-24T06:53:13;28.60;62.90
70107;DHT22;57473;37.508;15.080;2023-06-24T06:55:40;28.60;62.30
70107;DHT22;57473;37.508;15.080;2023-06-24T06:58:10;28.40;62.70
70107;DHT22;57473;37.508;15.080;2023-06-24T07:00:37;28.40;62.00
70107;DHT22;57473;37.508;15.080;2023-06-24T07:03:04;28.40;62.90
70107;DHT22;57473;37.508;15.080;2023-06-24T07:05:31;28.40;63.10
70107;DHT22;57473;37.508;15.080;2023-06-24T07:08:01;28.60;61.50
70107;DHT22;57473;37.508;15.080;2023-06-24T07:10:29;28.80;60.50
70107;DHT22;57473;37.508;15.080;2023-06-24T07:12:57;28.70;61.20
70107;DHT22;57473;37.508;15.080;2023-06-24T07:15:25;28.60;60.70
70107;DHT22;57473;37.508;15.080;2023-06-24T07:17:53;28.60;60.10
70107;DHT22;57473;37.508;15.080;2023-06-24T07:20:21;28.60;60.10
70107;DHT22;57473;37.508;15.080;2023-06-24T07:22:49;28.60;60.80
70107;DHT22;57473;37.508;15.080;2023-06-24T07:25:16;28.80;61.20
70107;DHT22;57473;37.508;15.080;2023-06-24T07:27:45;28.80;61.30
70107;DHT22;57473;37.508;15.080;2023-06-24T07:30:12;29.00;58.80
70107;DHT22;57473;37.508;15.080;2023-06-24T07:32:40;29.20;59.20
70107;DHT22;57473;37.508;15.080;2023-06-24T07:35:07;29.20;58.40
70107;DHT22;57473;37.508;15.080;2023-06-24T07:37:35;29.20;60.00
70107;DHT22;57473;37.508;15.080;2023-06-24T07:40:02;29.20;60.40
70107;DHT22;57473;37.508;15.080;2023-06-24T07:42:31;29.30;58.70
70107;DHT22;57473;37.508;15.080;2023-06-24T07:44:59;29.30;59.80
70107;DHT22;57473;37.508;15.080;2023-06-24T07:47:26;29.40;58.90
70107;DHT22;57473;37.508;15.080;2023-06-24T07:49:53;29.50;59.30
70107;DHT22;57473;37.508;15.080;2023-06-24T07:52:21;29.60;59.50
70107;DHT22;57473;37.508;15.080;2023-06-24T07:54:48;29.50;60.50
70107;DHT22;57473;37.508;15.080;2023-06-24T07:57:16;29.50;60.90
70107;DHT22;57473;37.508;15.080;2023-06-24T07:59:43;29.50;61.80
70107;DHT22;57473;37.508;15.080;2023-06-24T08:02:10;29.40;62.90
70107;DHT22;57473;37.508;15.080;2023-06-24T08:04:38;29.30;63.00
70107;DHT22;57473;37.508;15.080;2023-06-24T08:07:06;29.30;63.40
70107;DHT22;57473;37.508;15.080;2023-06-24T08:09:33;29.10;63.70
70107;DHT22;57473;37.508;15.080;2023-06-24T08:12:01;29.00;65.20
70107;DHT22;57473;37.508;15.080;2023-06-24T08:14:28;28.90;65.90
70107;DHT22;57473;37.508;15.080;2023-06-24T08:16:55;29.10;62.30
70107;DHT22;57473;37.508;15.080;2023-06-24T08:19:23;29.20;63.70
70107;DHT22;57473;37.508;15.080;2023-06-24T08:21:51;29.30;62.70
70107;DHT22;57473;37.508;15.080;2023-06-24T08:24:18;29.50;61.00
70107;DHT22;57473;37.508;15.080;2023-06-24T08:26:46;29.30;60.80
70107;DHT22;57473;37.508;15.080;2023-06-24T08:29:13;29.20;62.10
70107;DHT22;57473;37.508;15.080;2023-06-24T08:31:40;29.40;62.50
70107;DHT22;57473;37.508;15.080;2023-06-24T08:34:08;29.50;59.80
70107;DHT22;57473;37.508;15.080;2023-06-24T08:36:35;29.70;58.10
70107;DHT22;57473;37.508;15.080;2023-06-24T08:39:04;29.80;56.40
70107;DHT22;57473;37.508;15.080;2023-06-24T08:41:31;30.00;56.00
70107;DHT22;57473;37.508;15.080;2023-06-24T08:43:59;30.30;53.90
70107;DHT22;57473;37.508;15.080;2023-06-24T08:46:27;30.50;53.20
70107;DHT22;57473;37.508;15.080;2023-06-24T08:49:11;30.70;50.70
70107;DHT22;57473;37.508;15.080;2023-06-24T08:51:44;30.70;49.60
70107;DHT22;57473;37.508;15.080;2023-06-24T08:54:14;31.00;49.10
70107;DHT22;57473;37.508;15.080;2023-06-24T08:56:42;31.30;49.50
70107;DHT22;57473;37.508;15.080;2023-06-24T08:59:09;31.50;49.50
70107;DHT22;57473;37.508;15.080;2023-06-24T09:01:37;31.40;51.00
70107;DHT22;57473;37.508;15.080;2023-06-24T09:04:04;31.30;50.90
70107;DHT22;57473;37.508;15.080;2023-06-24T09:06:32;31.40;49.60
70107;DHT22;57473;37.508;15.080;2023-06-24T09:08:59;31.50;48.20
70107;DHT22;57473;37.508;15.080;2023-06-24T09:11:28;31.60;48.70
70107;DHT22;57473;37.508;15.080;2023-06-24T09:13:59;31.60;48.00
70107;DHT22;57473;37.508;15.080;2023-06-24T09:16:27;31.50;48.10
70107;DHT22;57473;37.508;15.080;2023-06-24T09:18:55;31.60;47.40
70107;DHT22;57473;37.508;15.080;2023-06-24T09:21:27;31.40;49.00
70107;DHT22;57473;37.508;15.080;2023-06-24T09:23:58;31.40;50.80
70107;DHT22;57473;37.508;15.080;2023-06-24T09:26:27;31.30;52.60
70107;DHT22;57473;37.508;15.080;2023-06-24T09:28:54;31.30;53.20
70107;DHT22;57473;37.508;15.080;2023-06-24T09:31:23;31.30;53.00
70107;DHT22;57473;37.508;15.080;2023-06-24T09:33:51;31.50;52.30
70107;DHT22;57473;37.508;15.080;2023-06-24T09:36:19;31.60;52.20
70107;DHT22;57473;37.508;15.080;2023-06-24T09:38:47;31.80;52.20
70107;DHT22;57473;37.508;15.080;2023-06-24T09:41:15;32.00;51.60
70107;DHT22;57473;37.508;15.080;2023-06-24T09:43:43;32.20;51.60
70107;DHT22;57473;37.508;15.080;2023-06-24T09:46:14;32.20;52.00
70107;DHT22;57473;37.508;15.080;2023-06-24T09:48:43;32.20;51.60
70107;DHT22;57473;37.508;15.080;2023-06-24T09:51:12;32.40;50.00
70107;DHT22;57473;37.508;15.080;2023-06-24T09:53:40;32.40;50.00
70107;DHT22;57473;37.508;15.080;2023-06-24T09:56:10;32.40;49.90
70107;DHT22;57473;37.508;15.080;2023-06-24T09:58:38;32.30;49.80
70107;DHT22;57473;37.508;15.080;2023-06-24T10:01:08;32.20;49.80
70107;DHT22;57473;37.508;15.080;2023-06-24T10:03:36;32.10;50.10
70107;DHT22;57473;37.508;15.080;2023-06-24T10:06:05;32.10;50.50
70107;DHT22;57473;37.508;15.080;2023-06-24T10:08:33;32.10;50.30
70107;DHT22;57473;37.508;15.080;2023-06-24T10:11:01;32.30;49.90
70107;DHT22;57473;37.508;15.080;2023-06-24T10:13:29;32.50;49.30
70107;DHT22;57473;37.508;15.080;2023-06-24T10:15:57;32.80;48.90
70107;DHT22;57473;37.508;15.080;2023-06-24T10:18:32;32.80;48.70
70107;DHT22;57473;37.508;15.080;2023-06-24T10:21:00;32.70;49.00
70107;DHT22;57473;37.508;15.080;2023-06-24T10:23:33;32.50;48.80
70107;DHT22;57473;37.508;15.080;2023-06-24T10:26:00;32.20;49.80
70107;DHT22;57473;37.508;15.080;2023-06-24T10:45:22;32.90;46.00
70107;DHT22;57473;37.508;15.080;2023-06-24T10:47:50;33.20;46.00
70107;DHT22;57473;37.508;15.080;2023-06-24T10:50:20;33.50;45.80
70107;DHT22;57473;37.508;15.080;2023-06-24T10:52:49;34.00;44.60
70107;DHT22;57473;37.508;15.080;2023-06-24T10:55:24;34.20;44.30
70107;DHT22;57473;37.508;15.080;2023-06-24T10:57:53;33.80;45.10
70107;DHT22;57473;37.508;15.080;2023-06-24T11:00:21;33.90;43.60
70107;DHT22;57473;37.508;15.080;2023-06-24T11:02:48;33.70;42.40
70107;DHT22;57473;37.508;15.080;2023-06-24T11:05:16;33.80;43.50
70107;DHT22;57473;37.508;15.080;2023-06-24T11:07:43;34.10;42.60
70107;DHT22;57473;37.508;15.080;2023-06-24T11:10:13;34.40;40.80
70107;DHT22;57473;37.508;15.080;2023-06-24T11:12:42;34.60;42.40
70107;DHT22;57473;37.508;15.080;2023-06-24T11:15:11;34.40;41.20
70107;DHT22;57473;37.508;15.080;2023-06-24T11:17:40;34.00;42.90
70107;DHT22;57473;37.508;15.080;2023-06-24T11:20:09;33.60;43.20
70107;DHT22;57473;37.508;15.080;2023-06-24T11:22:37;33.40;44.10
70107;DHT22;57473;37.508;15.080;2023-06-24T11:25:14;33.30;45.80
70107;DHT22;57473;37.508;15.080;2023-06-24T11:27:41;33.90;45.80
70107;DHT22;57473;37.508;15.080;2023-06-24T11:30:09;34.00;46.40
70107;DHT22;57473;37.508;15.080;2023-06-24T11:32:41;33.90;47.50
70107;DHT22;57473;37.508;15.080;2023-06-24T11:35:11;33.50;48.80
70107;DHT22;57473;37.508;15.080;2023-06-24T11:37:47;33.20;50.10
70107;DHT22;57473;37.508;15.080;2023-06-24T11:40:18;33.20;50.00
70107;DHT22;57473;37.508;15.080;2023-06-24T11:42:48;33.10;50.50
70107;DHT22;57473;37.508;15.080;2023-06-24T11:45:21;33.20;50.70
70107;DHT22;57473;37.508;15.080;2023-06-24T11:47:49;32.90;51.50
70107;DHT22;57473;37.508;15.080;2023-06-24T11:50:16;32.70;52.50
70107;DHT22;57473;37.508;15.080;2023-06-24T11:52:46;32.20;53.80
70107;DHT22;57473;37.508;15.080;2023-06-24T11:55:20;31.10;56.30
70107;DHT22;57473;37.508;15.080;2023-06-24T12:00:20;31.00;56.90
70107;DHT22;57473;37.508;15.080;2023-06-24T12:02:56;30.90;57.40
70107;DHT22;57473;37.508;15.080;2023-06-24T12:05:29;30.80;57.60
70107;DHT22;57473;37.508;15.080;2023-06-24T12:08:07;31.10;56.90
70107;DHT22;57473;37.508;15.080;2023-06-24T12:10:37;31.30;56.40
70107;DHT22;57473;37.508;15.080;2023-06-24T12:13:06;31.60;55.60
70107;DHT22;57473;37.508;15.080;2023-06-24T12:15:36;32.10;54.00
70107;DHT22;57473;37.508;15.080;2023-06-24T12:18:04;32.40;53.40
70107;DHT22;57473;37.508;15.080;2023-06-24T12:20:33;32.30;53.70
70107;DHT22;57473;37.508;15.080;2023-06-24T12:23:05;32.30;54.10
70107;DHT22;57473;37.508;15.080;2023-06-24T12:25:32;32.50;53.40
70107;DHT22;57473;37.508;15.080;2023-06-24T12:28:00;32.20;53.70
70107;DHT22;57473;37.508;15.080;2023-06-24T12:30:28;31.90;54.70
70107;DHT22;57473;37.508;15.080;2023-06-24T12:32:55;31.80;54.60
70107;DHT22;57473;37.508;15.080;2023-06-24T12:35:23;31.70;54.90
70107;DHT22;57473;37.508;15.080;2023-06-24T12:37:53;32.00;54.40
70107;DHT22;57473;37.508;15.080;2023-06-24T12:40:21;32.10;53.50
70107;DHT22;57473;37.508;15.080;2023-06-24T12:42:48;32.30;52.60
70107;DHT22;57473;37.508;15.080;2023-06-24T12:45:17;32.30;51.80
70107;DHT22;57473;37.508;15.080;2023-06-24T12:47:45;32.20;52.10
70107;DHT22;57473;37.508;15.080;2023-06-24T12:50:13;32.20;52.20
70107;DHT22;57473;37.508;15.080;2023-06-24T12:52:40;32.10;52.20
70107;DHT22;57473;37.508;15.080;2023-06-24T12:55:07;32.30;51.50
70107;DHT22;57473;37.508;15.080;2023-06-24T12:57:35;32.60;50.70
70107;DHT22;57473;37.508;15.080;2023-06-24T13:00:05;32.50;50.80
70107;DHT22;57473;37.508;15.080;2023-06-24T13:02:33;32.70;50.40
70107;DHT22;57473;37.508;15.080;2023-06-24T13:05:01;32.80;49.40
70107;DHT22;57473;37.508;15.080;2023-06-24T13:07:30;32.20;50.60
70107;DHT22;57473;37.508;15.080;2023-06-24T13:09:57;32.60;50.30
70107;DHT22;57473;37.508;15.080;2023-06-24T13:12:26;32.70;49.60
70107;DHT22;57473;37.508;15.080;2023-06-24T13:14:54;32.80;49.90
70107;DHT22;57473;37.508;15.080;2023-06-24T13:17:22;33.00;49.30
70107;DHT22;57473;37.508;15.080;2023-06-24T13:19:50;33.60;47.70
70107;DHT22;57473;37.508;15.080;2023-06-24T13:22:17;33.70;47.70
70107;DHT22;57473;37.508;15.080;2023-06-24T13:24:45;34.20;46.70
70107;DHT22;57473;37.508;15.080;2023-06-24T13:27:13;34.50;46.10
70107;DHT22;57473;37.508;15.080;2023-06-24T13:29:40;34.50;45.40
70107;DHT22;57473;37.508;15.080;2023-06-24T13:32:08;34.20;46.20
70107;DHT22;57473;37.508;15.080;2023-06-24T13:34:36;34.30;46.10
70107;DHT22;57473;37.508;15.080;2023-06-24T13:37:04;33.90;46.60
70107;DHT22;57473;37.508;15.080;2023-06-24T13:39:31;33.90;46.30
70107;DHT22;57473;37.508;15.080;2023-06-24T13:41:59;34.40;45.60
70107;DHT22;57473;37.508;15.080;2023-06-24T13:44:27;35.00;44.50
70107;DHT22;57473;37.508;15.080;2023-06-24T13:46:55;35.50;43.50
70107;DHT22;57473;37.508;15.080;2023-06-24T13:49:24;35.70;42.60
70107;DHT22;57473;37.508;15.080;2023-06-24T13:51:51;35.90;41.50
70107;DHT22;57473;37.508;15.080;2023-06-24T13:54:19;35.20;41.50
70107;DHT22;57473;37.508;15.080;2023-06-24T13:56:46;35.20;41.30
70107;DHT22;57473;37.508;15.080;2023-06-24T13:59:14;35.30;41.20
70107;DHT22;57473;37.508;15.080;2023-06-24T14:01:41;35.50;39.60
70107;DHT22;57473;37.508;15.080;2023-06-24T14:04:09;35.60;39.20
70107;DHT22;57473;37.508;15.080;2023-06-24T14:06:37;35.30;40.50
70107;DHT22;57473;37.508;15.080;2023-06-24T14:09:04;35.10;41.00
70107;DHT22;57473;37.508;15.080;2023-06-24T14:11:32;35.30;40.80
70107;DHT22;57473;37.508;15.080;2023-06-24T14:13:59;36.00;39.30
70107;DHT22;57473;37.508;15.080;2023-06-24T14:16:27;36.30;38.90
70107;DHT22;57473;37.508;15.080;2023-06-24T14:18:54;36.60;38.30
70107;DHT22;57473;37.508;15.080;2023-06-24T14:21:22;36.20;39.00
70107;DHT22;57473;37.508;15.080;2023-06-24T14:23:49;36.30;39.10
70107;DHT22;57473;37.508;15.080;2023-06-24T14:26:20;36.50;39.00
70107;DHT22;57473;37.508;15.080;2023-06-24T14:28:48;36.10;39.50
70107;DHT22;57473;37.508;15.080;2023-06-24T14:31:15;35.80;39.60
70107;DHT22;57473;37.508;15.080;2023-06-24T14:33:43;36.00;39.60
70107;DHT22;57473;37.508;15.080;2023-06-24T14:36:10;36.00;40.00
70107;DHT22;57473;37.508;15.080;2023-06-24T14:38:38;36.00;40.30
70107;DHT22;57473;37.508;15.080;2023-06-24T14:41:06;35.50;42.00
70107;DHT22;57473;37.508;15.080;2023-06-24T14:43:34;34.70;43.60
70107;DHT22;57473;37.508;15.080;2023-06-24T14:46:02;34.00;45.00
70107;DHT22;57473;37.508;15.080;2023-06-24T14:48:29;33.50;46.10
70107;DHT22;57473;37.508;15.080;2023-06-24T14:50:57;32.80;48.20
70107;DHT22;57473;37.508;15.080;2023-06-24T14:53:24;32.30;49.30
70107;DHT22;57473;37.508;15.080;2023-06-24T14:55:52;31.90;50.20
70107;DHT22;57473;37.508;15.080;2023-06-24T14:58:19;32.10;50.00
70107;DHT22;57473;37.508;15.080;2023-06-24T15:00:47;32.10;50.20
70107;DHT22;57473;37.508;15.080;2023-06-24T15:03:15;32.20;50.00
70107;DHT22;57473;37.508;15.080;2023-06-24T15:05:43;31.80;51.20
70107;DHT22;57473;37.508;15.080;2023-06-24T15:08:11;31.60;51.40
70107;DHT22;57473;37.508;15.080;2023-06-24T15:10:38;31.70;51.80
70107;DHT22;57473;37.508;15.080;2023-06-24T15:13:06;31.60;51.70
70107;DHT22;57473;37.508;15.080;2023-06-24T15:15:33;31.50;52.40
70107;DHT22;57473;37.508;15.080;2023-06-24T15:18:01;31.60;51.80
70107;DHT22;57473;37.508;15.080;2023-06-24T15:20:28;31.70;51.50
70107;DHT22;57473;37.508;15.080;2023-06-24T15:22:56;31.70;51.10
70107;DHT22;57473;37.508;15.080;2023-06-24T15:25:23;31.70;51.40
70107;DHT22;57473;37.508;15.080;2023-06-24T15:27:50;31.50;51.90
70107;DHT22;57473;37.508;15.080;2023-06-24T15:30:18;31.30;51.90
70107;DHT22;57473;37.508;15.080;2023-06-24T15:32:45;31.00;52.40
70107;DHT22;57473;37.508;15.080;2023-06-24T15:35:13;31.10;51.90
70107;DHT22;57473;37.508;15.080;2023-06-24T15:37:40;31.10;50.80
70107;DHT22;57473;37.508;15.080;2023-06-24T15:40:08;31.20;50.90
70107;DHT22;57473;37.508;15.080;2023-06-24T15:42:35;31.20;50.60
70107;DHT22;57473;37.508;15.080;2023-06-24T15:45:05;31.10;49.80
70107;DHT22;57473;37.508;15.080;2023-06-24T15:47:32;31.00;49.70
70107;DHT22;57473;37.508;15.080;2023-06-24T15:50:01;31.00;49.70
70107;DHT22;57473;37.508;15.080;2023-06-24T15:52:29;31.00;49.70
70107;DHT22;57473;37.508;15.080;2023-06-24T15:54:56;31.00;50.50
70107;DHT22;57473;37.508;15.080;2023-06-24T15:57:24;31.00;49.50
70107;DHT22;57473;37.508;15.080;2023-06-24T15:59:51;31.00;50.10
70107;DHT22;57473;37.508;15.080;2023-06-24T16:02:19;30.70;50.60